sensor_id;sensor_type;location;lat;lon;timestamp;P1;durP1;ratioP1;P2;durP2;ratioP2
52318;SDS011;38258;51.148;14.068;2022-11-11T00:02:29;5.50;;;3.38;;
52318;SDS011;38258;51.148;14.068;2022-11-11T00:05:14;5.53;;;3.38;;
52318;SDS011;38258;51.148;14.068;2022-11-11T00:08:00;7.63;;;4.05;;
52318;SDS011;38258;51.148;14.068;2022-11-11T00:10:47;6.13;;;3.88;;
52318;SDS011;38258;51.148;14.068;2022-11-11T00:13:32;7.90;;;3.75;;
52318;SDS011;38258;51.148;14.068;2022-11-11T00:16:19;29.02;;;14.77;;
52318;SDS011;38258;51.148;14.068;2022-11-11T00:19:04;38.40;;;19.45;;
52318;SDS011;38258;51.148;14.068;2022-11-11T00:22:09;33.03;;;16.50;;
52318;SDS011;38258;51.148;14.068;2022-11-11T00:25:21;31.05;;;17.10;;
52318;SDS011;38258;51.148;14.068;2022-11-11T00:28:08;26.83;;;14.32;;
52318;SDS011;38258;51.148;14.068;2022-11-11T00:31:00;26.38;;;15.90;;
52318;SDS011;38258;51.148;14.068;2022-11-11T00:33:45;29.15;;;16.38;;
52318;SDS011;38258;51.148;14.068;2022-11-11T00:36:31;29.98;;;14.82;;
52318;SDS011;38258;51.148;14.068;2022-11-11T00:42:00;36.17;;;17.42;;
52318;SDS011;38258;51.148;14.068;2022-11-11T00:44:48;38.70;;;21.25;;
52318;SDS011;38258;51.148;14.068;2022-11-11T00:47:33;37.40;;;19.75;;
52318;SDS011;38258;51.148;14.068;2022-11-11T00:50:36;29.60;;;17.75;;
52318;SDS011;38258;51.148;14.068;2022-11-11T00:53:42;29.67;;;15.75;;
52318;SDS011;38258;51.148;14.068;2022-11-11T00:56:28;26.45;;;15.23;;
52318;SDS011;38258;51.148;14.068;2022-11-11T00:59:13;22.80;;;11.75;;
52318;SDS011;38258;51.148;14.068;2022-11-11T01:02:00;21.55;;;10.98;;
52318;SDS011;38258;51.148;14.068;2022-11-11T01:04:45;19.92;;;12.05;;
52318;SDS011;38258;51.148;14.068;2022-11-11T01:07:30;14.52;;;8.98;;
52318;SDS011;38258;51.148;14.068;2022-11-11T01:10:16;16.00;;;8.80;;
52318;SDS011;38258;51.148;14.068;2022-11-11T01:13:21;13.60;;;7.88;;
52318;SDS011;38258;51.148;14.068;2022-11-11T01:16:10;12.77;;;7.47;;
52318;SDS011;38258;51.148;14.068;2022-11-11T01:18:59;8.90;;;5.22;;
52318;SDS011;38258;51.148;14.068;2022-11-11T01:21:45;9.45;;;5.35;;
52318;SDS011;38258;51.148;14.068;2022-11-11T01:24:30;10.18;;;6.00;;
52318;SDS011;38258;51.148;14.068;2022-11-11T01:27:15;12.45;;;6.13;;
52318;SDS011;38258;51.148;14.068;2022-11-11T01:30:00;9.25;;;4.97;;
52318;SDS011;38258;51.148;14.068;2022-11-11T01:32:45;9.52;;;4.65;;
52318;SDS011;38258;51.148;14.068;2022-11-11T01:35:31;8.38;;;4.55;;
52318;SDS011;38258;51.148;14.068;2022-11-11T01:38:22;6.88;;;3.53;;
52318;SDS011;38258;51.148;14.068;2022-11-11T01:41:07;6.05;;;3.13;;
52318;SDS011;38258;51.148;14.068;2022-11-11T01:44:17;5.68;;;2.90;;
52318;SDS011;38258;51.148;14.068;2022-11-11T01:47:23;5.47;;;2.40;;
52318;SDS011;38258;51.148;14.068;2022-11-11T01:50:28;3.95;;;2.63;;
52318;SDS011;38258;51.148;14.068;2022-11-11T01:53:14;5.95;;;2.22;;
52318;SDS011;38258;51.148;14.068;2022-11-11T01:55:59;2.92;;;2.00;;
52318;SDS011;38258;51.148;14.068;2022-11-11T01:58:46;2.72;;;1.80;;
52318;SDS011;38258;51.148;14.068;2022-11-11T02:01:31;5.28;;;2.10;;
52318;SDS011;38258;51.148;14.068;2022-11-11T02:04:18;3.47;;;1.98;;
52318;SDS011;38258;51.148;14.068;2022-11-11T02:07:21;4.00;;;1.98;;
52318;SDS011;38258;51.148;14.068;2022-11-11T02:10:09;3.92;;;1.92;;
52318;SDS011;38258;51.148;14.068;2022-11-11T02:12:54;2.63;;;1.75;;
52318;SDS011;38258;51.148;14.068;2022-11-11T02:15:57;2.10;;;1.52;;
52318;SDS011;38258;51.148;14.068;2022-11-11T02:18:42;5.35;;;2.10;;
52318;SDS011;38258;51.148;14.068;2022-11-11T02:21:29;5.82;;;1.67;;
52318;SDS011;38258;51.148;14.068;2022-11-11T02:24:20;2.25;;;1.80;;
52318;SDS011;38258;51.148;14.068;2022-11-11T02:27:08;3.95;;;2.20;;
52318;SDS011;38258;51.148;14.068;2022-11-11T02:29:57;3.33;;;1.48;;
52318;SDS011;38258;51.148;14.068;2022-11-11T02:32:45;2.38;;;1.55;;
52318;SDS011;38258;51.148;14.068;2022-11-11T02:35:32;3.33;;;1.80;;
52318;SDS011;38258;51.148;14.068;2022-11-11T02:38:18;3.72;;;2.08;;
52318;SDS011;38258;51.148;14.068;2022-11-11T02:41:05;3.60;;;1.75;;
52318;SDS011;38258;51.148;14.068;2022-11-11T02:44:08;4.97;;;1.90;;
52318;SDS011;38258;51.148;14.068;2022-11-11T02:46:53;3.25;;;2.25;;
52318;SDS011;38258;51.148;14.068;2022-11-11T02:49:39;2.90;;;2.20;;
52318;SDS011;38258;51.148;14.068;2022-11-11T02:52:24;5.10;;;2.50;;
52318;SDS011;38258;51.148;14.068;2022-11-11T02:55:09;5.47;;;2.80;;
52318;SDS011;38258;51.148;14.068;2022-11-11T02:57:56;3.78;;;2.40;;
52318;SDS011;38258;51.148;14.068;2022-11-11T03:00:42;5.50;;;2.78;;
52318;SDS011;38258;51.148;14.068;2022-11-11T03:03:27;4.72;;;2.20;;
52318;SDS011;38258;51.148;14.068;2022-11-11T03:06:12;4.57;;;2.58;;
52318;SDS011;38258;51.148;14.068;2022-11-11T03:08:58;10.48;;;2.63;;
52318;SDS011;38258;51.148;14.068;2022-11-11T03:11:43;4.30;;;2.40;;
52318;SDS011;38258;51.148;14.068;2022-11-11T03:14:29;4.88;;;2.70;;
52318;SDS011;38258;51.148;14.068;2022-11-11T03:17:14;4.45;;;2.42;;
52318;SDS011;38258;51.148;14.068;2022-11-11T03:20:18;3.40;;;2.30;;
52318;SDS011;38258;51.148;14.068;2022-11-11T03:23:21;6.25;;;2.40;;
52318;SDS011;38258;51.148;14.068;2022-11-11T03:26:06;2.75;;;1.77;;
52318;SDS011;38258;51.148;14.068;2022-11-11T03:28:52;3.60;;;2.00;;
52318;SDS011;38258;51.148;14.068;2022-11-11T03:31:38;3.65;;;2.00;;
52318;SDS011;38258;51.148;14.068;2022-11-11T03:34:24;4.43;;;1.90;;
52318;SDS011;38258;51.148;14.068;2022-11-11T03:37:09;2.40;;;1.80;;
52318;SDS011;38258;51.148;14.068;2022-11-11T03:40:13;3.47;;;2.30;;
52318;SDS011;38258;51.148;14.068;2022-11-11T03:42:58;5.47;;;2.40;;
52318;SDS011;38258;51.148;14.068;2022-11-11T03:45:43;4.25;;;2.00;;
52318;SDS011;38258;51.148;14.068;2022-11-11T03:48:31;4.50;;;2.20;;
52318;SDS011;38258;51.148;14.068;2022-11-11T03:51:17;3.58;;;1.85;;
52318;SDS011;38258;51.148;14.068;2022-11-11T03:54:02;3.53;;;1.95;;
52318;SDS011;38258;51.148;14.068;2022-11-11T03:56:48;3.90;;;2.10;;
52318;SDS011;38258;51.148;14.068;2022-11-11T03:59:32;2.20;;;1.60;;
52318;SDS011;38258;51.148;14.068;2022-11-11T04:02:18;3.33;;;1.95;;
52318;SDS011;38258;51.148;14.068;2022-11-11T04:05:22;3.42;;;1.77;;
52318;SDS011;38258;51.148;14.068;2022-11-11T04:08:25;2.20;;;1.45;;
52318;SDS011;38258;51.148;14.068;2022-11-11T04:11:29;4.03;;;1.83;;
52318;SDS011;38258;51.148;14.068;2022-11-11T04:14:16;5.25;;;2.03;;
52318;SDS011;38258;51.148;14.068;2022-11-11T04:17:19;3.38;;;1.88;;
52318;SDS011;38258;51.148;14.068;2022-11-11T04:20:05;4.55;;;1.80;;
52318;SDS011;38258;51.148;14.068;2022-11-11T04:23:14;2.25;;;1.70;;
52318;SDS011;38258;51.148;14.068;2022-11-11T04:26:00;4.47;;;2.13;;
52318;SDS011;38258;51.148;14.068;2022-11-11T04:28:44;5.53;;;2.25;;
52318;SDS011;38258;51.148;14.068;2022-11-11T04:31:47;6.50;;;1.98;;
52318;SDS011;38258;51.148;14.068;2022-11-11T04:34:47;2.92;;;1.90;;
52318;SDS011;38258;51.148;14.068;2022-11-11T04:37:33;4.07;;;2.00;;
52318;SDS011;38258;51.148;14.068;2022-11-11T04:40:22;2.30;;;1.70;;
52318;SDS011;38258;51.148;14.068;2022-11-11T04:43:25;2.05;;;1.50;;
52318;SDS011;38258;51.148;14.068;2022-11-11T04:46:10;3.72;;;1.48;;
52318;SDS011;38258;51.148;14.068;2022-11-11T04:48:54;3.70;;;1.58;;
52318;SDS011;38258;51.148;14.068;2022-11-11T04:51:39;1.70;;;1.13;;
52318;SDS011;38258;51.148;14.068;2022-11-11T04:54:56;2.70;;;1.67;;
52318;SDS011;38258;51.148;14.068;2022-11-11T05:00:47;3.15;;;1.60;;
52318;SDS011;38258;51.148;14.068;2022-11-11T05:03:32;3.25;;;1.80;;
52318;SDS011;38258;51.148;14.068;2022-11-11T05:09:19;4.45;;;1.90;;
52318;SDS011;38258;51.148;14.068;2022-11-11T05:12:04;7.50;;;2.10;;
52318;SDS011;38258;51.148;14.068;2022-11-11T05:14:51;4.00;;;2.00;;
52318;SDS011;38258;51.148;14.068;2022-11-11T05:17:54;3.10;;;1.67;;
52318;SDS011;38258;51.148;14.068;2022-11-11T05:21:07;4.25;;;2.35;;
52318;SDS011;38258;51.148;14.068;2022-11-11T05:24:04;2.50;;;1.70;;
52318;SDS011;38258;51.148;14.068;2022-11-11T05:27:06;4.72;;;2.10;;
52318;SDS011;38258;51.148;14.068;2022-11-11T05:29:53;3.63;;;1.48;;
52318;SDS011;38258;51.148;14.068;2022-11-11T05:32:38;4.30;;;1.92;;
52318;SDS011;38258;51.148;14.068;2022-11-11T05:35:24;3.92;;;1.73;;
52318;SDS011;38258;51.148;14.068;2022-11-11T05:38:09;4.82;;;1.70;;
52318;SDS011;38258;51.148;14.068;2022-11-11T05:41:11;4.22;;;2.00;;
52318;SDS011;38258;51.148;14.068;2022-11-11T05:43:56;4.75;;;2.25;;
52318;SDS011;38258;51.148;14.068;2022-11-11T05:46:42;5.22;;;2.25;;
52318;SDS011;38258;51.148;14.068;2022-11-11T05:49:27;4.45;;;1.92;;
52318;SDS011;38258;51.148;14.068;2022-11-11T05:52:13;2.95;;;1.98;;
52318;SDS011;38258;51.148;14.068;2022-11-11T05:54:59;6.55;;;2.05;;
52318;SDS011;38258;51.148;14.068;2022-11-11T05:57:45;5.43;;;2.65;;
52318;SDS011;38258;51.148;14.068;2022-11-11T06:00:30;6.82;;;3.00;;
52318;SDS011;38258;51.148;14.068;2022-11-11T06:03:17;6.68;;;2.70;;
52318;SDS011;38258;51.148;14.068;2022-11-11T06:06:01;3.58;;;2.13;;
52318;SDS011;38258;51.148;14.068;2022-11-11T06:08:47;4.45;;;2.47;;
52318;SDS011;38258;51.148;14.068;2022-11-11T06:11:32;6.40;;;2.58;;
52318;SDS011;38258;51.148;14.068;2022-11-11T06:14:17;4.78;;;2.58;;
52318;SDS011;38258;51.148;14.068;2022-11-11T06:17:02;3.83;;;2.58;;
52318;SDS011;38258;51.148;14.068;2022-11-11T06:19:48;8.85;;;4.70;;
52318;SDS011;38258;51.148;14.068;2022-11-11T06:22:34;9.98;;;4.32;;
52318;SDS011;38258;51.148;14.068;2022-11-11T06:25:37;7.30;;;4.25;;
52318;SDS011;38258;51.148;14.068;2022-11-11T06:28:40;7.82;;;4.47;;
52318;SDS011;38258;51.148;14.068;2022-11-11T06:31:27;8.63;;;4.53;;
52318;SDS011;38258;51.148;14.068;2022-11-11T06:34:12;8.35;;;4.30;;
52318;SDS011;38258;51.148;14.068;2022-11-11T06:36:59;6.78;;;4.15;;
52318;SDS011;38258;51.148;14.068;2022-11-11T06:39:44;6.95;;;3.92;;
52318;SDS011;38258;51.148;14.068;2022-11-11T06:42:28;7.90;;;3.72;;
52318;SDS011;38258;51.148;14.068;2022-11-11T06:45:14;5.47;;;3.67;;
52318;SDS011;38258;51.148;14.068;2022-11-11T06:47:59;7.35;;;4.35;;
52318;SDS011;38258;51.148;14.068;2022-11-11T06:50:44;7.97;;;3.60;;
52318;SDS011;38258;51.148;14.068;2022-11-11T06:53:39;4.70;;;2.42;;
52318;SDS011;38258;51.148;14.068;2022-11-11T06:56:25;3.53;;;2.30;;
52318;SDS011;38258;51.148;14.068;2022-11-11T06:59:10;5.78;;;2.65;;
52318;SDS011;38258;51.148;14.068;2022-11-11T07:01:55;4.60;;;2.13;;
52318;SDS011;38258;51.148;14.068;2022-11-11T07:04:40;6.82;;;2.80;;
52318;SDS011;38258;51.148;14.068;2022-11-11T07:07:25;4.80;;;2.47;;
52318;SDS011;38258;51.148;14.068;2022-11-11T07:10:12;4.63;;;2.47;;
52318;SDS011;38258;51.148;14.068;2022-11-11T07:12:58;4.70;;;2.78;;
52318;SDS011;38258;51.148;14.068;2022-11-11T07:15:43;5.03;;;3.17;;
52318;SDS011;38258;51.148;14.068;2022-11-11T07:18:29;5.38;;;3.10;;
52318;SDS011;38258;51.148;14.068;2022-11-11T07:21:14;6.05;;;2.90;;
52318;SDS011;38258;51.148;14.068;2022-11-11T07:24:05;9.57;;;3.35;;
52318;SDS011;38258;51.148;14.068;2022-11-11T07:26:53;4.78;;;2.90;;
52318;SDS011;38258;51.148;14.068;2022-11-11T07:29:38;4.60;;;2.90;;
52318;SDS011;38258;51.148;14.068;2022-11-11T07:32:24;4.80;;;3.03;;
52318;SDS011;38258;51.148;14.068;2022-11-11T07:35:09;6.40;;;3.45;;
52318;SDS011;38258;51.148;14.068;2022-11-11T07:37:54;5.55;;;2.95;;
52318;SDS011;38258;51.148;14.068;2022-11-11T07:40:39;7.15;;;3.40;;
52318;SDS011;38258;51.148;14.068;2022-11-11T07:43:26;6.32;;;2.30;;
52318;SDS011;38258;51.148;14.068;2022-11-11T07:46:11;3.55;;;1.70;;
52318;SDS011;38258;51.148;14.068;2022-11-11T07:48:57;2.97;;;1.73;;
52318;SDS011;38258;51.148;14.068;2022-11-11T07:51:42;5.20;;;1.90;;
52318;SDS011;38258;51.148;14.068;2022-11-11T07:54:27;6.03;;;1.95;;
52318;SDS011;38258;51.148;14.068;2022-11-11T07:57:12;7.50;;;1.90;;
52318;SDS011;38258;51.148;14.068;2022-11-11T07:59:59;3.13;;;1.55;;
52318;SDS011;38258;51.148;14.068;2022-11-11T08:02:45;2.83;;;1.48;;
52318;SDS011;38258;51.148;14.068;2022-11-11T08:05:31;4.70;;;1.77;;
52318;SDS011;38258;51.148;14.068;2022-11-11T08:08:16;3.72;;;1.70;;
52318;SDS011;38258;51.148;14.068;2022-11-11T08:11:07;4.47;;;2.05;;
52318;SDS011;38258;51.148;14.068;2022-11-11T08:13:53;6.80;;;1.88;;
52318;SDS011;38258;51.148;14.068;2022-11-11T08:19:24;3.97;;;1.52;;
52318;SDS011;38258;51.148;14.068;2022-11-11T08:22:09;4.65;;;1.70;;
52318;SDS011;38258;51.148;14.068;2022-11-11T08:24:54;5.28;;;1.60;;
52318;SDS011;38258;51.148;14.068;2022-11-11T08:27:40;3.67;;;1.60;;
52318;SDS011;38258;51.148;14.068;2022-11-11T08:30:25;3.22;;;1.58;;
52318;SDS011;38258;51.148;14.068;2022-11-11T08:33:12;4.55;;;1.58;;
52318;SDS011;38258;51.148;14.068;2022-11-11T08:35:58;4.82;;;1.55;;
52318;SDS011;38258;51.148;14.068;2022-11-11T08:38:44;2.50;;;1.52;;
52318;SDS011;38258;51.148;14.068;2022-11-11T08:41:29;2.63;;;1.60;;
52318;SDS011;38258;51.148;14.068;2022-11-11T08:44:15;2.95;;;1.52;;
52318;SDS011;38258;51.148;14.068;2022-11-11T08:47:00;4.40;;;1.95;;
52318;SDS011;38258;51.148;14.068;2022-11-11T08:49:47;3.70;;;2.00;;
52318;SDS011;38258;51.148;14.068;2022-11-11T08:52:33;4.95;;;1.80;;
52318;SDS011;38258;51.148;14.068;2022-11-11T08:55:18;7.90;;;1.80;;
52318;SDS011;38258;51.148;14.068;2022-11-11T08:58:04;7.35;;;2.13;;
52318;SDS011;38258;51.148;14.068;2022-11-11T09:00:51;5.78;;;2.03;;
52318;SDS011;38258;51.148;14.068;2022-11-11T09:03:36;3.42;;;1.65;;
52318;SDS011;38258;51.148;14.068;2022-11-11T09:06:23;3.50;;;1.98;;
52318;SDS011;38258;51.148;14.068;2022-11-11T09:09:09;4.65;;;2.30;;
52318;SDS011;38258;51.148;14.068;2022-11-11T09:11:54;3.80;;;1.92;;
52318;SDS011;38258;51.148;14.068;2022-11-11T09:14:39;6.68;;;2.58;;
52318;SDS011;38258;51.148;14.068;2022-11-11T09:17:25;4.20;;;1.98;;
52318;SDS011;38258;51.148;14.068;2022-11-11T09:20:11;3.60;;;1.90;;
52318;SDS011;38258;51.148;14.068;2022-11-11T09:22:58;4.00;;;1.90;;
52318;SDS011;38258;51.148;14.068;2022-11-11T09:25:43;4.85;;;2.03;;
52318;SDS011;38258;51.148;14.068;2022-11-11T09:28:29;3.30;;;1.73;;
52318;SDS011;38258;51.148;14.068;2022-11-11T09:31:16;4.82;;;2.08;;
52318;SDS011;38258;51.148;14.068;2022-11-11T09:34:01;3.08;;;1.90;;
52318;SDS011;38258;51.148;14.068;2022-11-11T09:36:49;4.93;;;2.10;;
52318;SDS011;38258;51.148;14.068;2022-11-11T09:39:36;3.38;;;1.92;;
52318;SDS011;38258;51.148;14.068;2022-11-11T09:42:26;5.45;;;2.05;;
52318;SDS011;38258;51.148;14.068;2022-11-11T09:45:22;3.55;;;1.75;;
52318;SDS011;38258;51.148;14.068;2022-11-11T09:48:25;3.55;;;1.85;;
52318;SDS011;38258;51.148;14.068;2022-11-11T09:51:22;3.10;;;1.95;;
52318;SDS011;38258;51.148;14.068;2022-11-11T09:54:12;3.13;;;1.98;;
52318;SDS011;38258;51.148;14.068;2022-11-11T09:57:04;4.38;;;2.03;;
52318;SDS011;38258;51.148;14.068;2022-11-11T09:59:56;4.45;;;2.15;;
52318;SDS011;38258;51.148;14.068;2022-11-11T10:02:47;5.22;;;2.20;;
52318;SDS011;38258;51.148;14.068;2022-11-11T10:05:36;3.92;;;2.05;;
52318;SDS011;38258;51.148;14.068;2022-11-11T10:08:26;6.22;;;2.03;;
52318;SDS011;38258;51.148;14.068;2022-11-11T10:11:14;4.32;;;2.33;;
52318;SDS011;38258;51.148;14.068;2022-11-11T10:14:09;4.07;;;2.22;;
52318;SDS011;38258;51.148;14.068;2022-11-11T10:16:56;5.30;;;3.13;;
52318;SDS011;38258;51.148;14.068;2022-11-11T10:19:53;3.35;;;2.25;;
52318;SDS011;38258;51.148;14.068;2022-11-11T10:22:52;5.82;;;2.20;;
52318;SDS011;38258;51.148;14.068;2022-11-11T10:25:48;4.57;;;2.22;;
52318;SDS011;38258;51.148;14.068;2022-11-11T10:28:37;6.28;;;2.53;;
52318;SDS011;38258;51.148;14.068;2022-11-11T10:31:29;3.92;;;2.40;;
52318;SDS011;38258;51.148;14.068;2022-11-11T10:34:15;4.47;;;2.28;;
52318;SDS011;38258;51.148;14.068;2022-11-11T10:37:02;4.05;;;2.40;;
52318;SDS011;38258;51.148;14.068;2022-11-11T10:40:00;4.38;;;2.60;;
52318;SDS011;38258;51.148;14.068;2022-11-11T10:42:51;7.47;;;2.40;;
52318;SDS011;38258;51.148;14.068;2022-11-11T10:45:38;6.30;;;2.60;;
52318;SDS011;38258;51.148;14.068;2022-11-11T10:48:32;4.95;;;2.83;;
52318;SDS011;38258;51.148;14.068;2022-11-11T10:51:26;4.15;;;2.30;;
52318;SDS011;38258;51.148;14.068;2022-11-11T10:54:15;4.13;;;2.35;;
52318;SDS011;38258;51.148;14.068;2022-11-11T10:57:08;5.10;;;2.40;;
52318;SDS011;38258;51.148;14.068;2022-11-11T10:59:59;4.47;;;2.30;;
52318;SDS011;38258;51.148;14.068;2022-11-11T11:02:49;4.90;;;2.50;;
52318;SDS011;38258;51.148;14.068;2022-11-11T11:05:43;3.50;;;2.30;;
52318;SDS011;38258;51.148;14.068;2022-11-11T11:08:33;5.43;;;2.60;;
52318;SDS011;38258;51.148;14.068;2022-11-11T11:11:22;3.80;;;2.45;;
52318;SDS011;38258;51.148;14.068;2022-11-11T11:14:14;7.40;;;2.50;;
52318;SDS011;38258;51.148;14.068;2022-11-11T11:17:07;4.15;;;2.00;;
52318;SDS011;38258;51.148;14.068;2022-11-11T11:20:08;4.95;;;2.53;;
52318;SDS011;38258;51.148;14.068;2022-11-11T11:22:57;5.15;;;2.15;;
52318;SDS011;38258;51.148;14.068;2022-11-11T11:25:50;3.47;;;2.05;;
52318;SDS011;38258;51.148;14.068;2022-11-11T11:28:51;4.45;;;2.35;;
52318;SDS011;38258;51.148;14.068;2022-11-11T11:31:39;5.97;;;2.72;;
52318;SDS011;38258;51.148;14.068;2022-11-11T11:34:39;5.40;;;2.88;;
52318;SDS011;38258;51.148;14.068;2022-11-11T11:37:31;4.00;;;2.00;;
52318;SDS011;38258;51.148;14.068;2022-11-11T11:40:18;5.00;;;2.17;;
52318;SDS011;38258;51.148;14.068;2022-11-11T11:43:06;5.57;;;2.28;;
52318;SDS011;38258;51.148;14.068;2022-11-11T11:46:18;3.88;;;2.33;;
52318;SDS011;38258;51.148;14.068;2022-11-11T11:49:14;5.65;;;2.25;;
52318;SDS011;38258;51.148;14.068;2022-11-11T11:52:09;4.10;;;2.20;;
52318;SDS011;38258;51.148;14.068;2022-11-11T11:55:03;4.82;;;2.40;;
52318;SDS011;38258;51.148;14.068;2022-11-11T11:57:58;5.18;;;2.80;;
52318;SDS011;38258;51.148;14.068;2022-11-11T12:00:59;4.70;;;2.42;;
52318;SDS011;38258;51.148;14.068;2022-11-11T12:03:55;3.85;;;2.10;;
52318;SDS011;38258;51.148;14.068;2022-11-11T12:06:54;5.32;;;2.30;;
52318;SDS011;38258;51.148;14.068;2022-11-11T12:09:53;5.65;;;2.50;;
52318;SDS011;38258;51.148;14.068;2022-11-11T12:12:46;5.70;;;2.88;;
52318;SDS011;38258;51.148;14.068;2022-11-11T12:15:42;5.00;;;2.35;;
52318;SDS011;38258;51.148;14.068;2022-11-11T12:18:44;4.10;;;2.15;;
52318;SDS011;38258;51.148;14.068;2022-11-11T12:21:40;4.60;;;2.22;;
52318;SDS011;38258;51.148;14.068;2022-11-11T12:24:42;3.55;;;1.77;;
52318;SDS011;38258;51.148;14.068;2022-11-11T12:27:35;4.07;;;1.50;;
52318;SDS011;38258;51.148;14.068;2022-11-11T12:36:42;4.07;;;1.77;;
52318;SDS011;38258;51.148;14.068;2022-11-11T12:39:37;6.10;;;2.47;;
52318;SDS011;38258;51.148;14.068;2022-11-11T12:42:47;2.80;;;1.58;;
52318;SDS011;38258;51.148;14.068;2022-11-11T12:45:47;3.95;;;1.83;;
52318;SDS011;38258;51.148;14.068;2022-11-11T12:48:39;4.95;;;1.80;;
52318;SDS011;38258;51.148;14.068;2022-11-11T12:51:39;3.83;;;1.92;;
52318;SDS011;38258;51.148;14.068;2022-11-11T12:54:38;3.45;;;2.30;;
52318;SDS011;38258;51.148;14.068;2022-11-11T12:57:33;4.38;;;2.10;;
52318;SDS011;38258;51.148;14.068;2022-11-11T13:00:27;5.00;;;2.33;;
52318;SDS011;38258;51.148;14.068;2022-11-11T13:03:20;5.53;;;2.20;;
52318;SDS011;38258;51.148;14.068;2022-11-11T13:06:20;6.53;;;2.65;;
52318;SDS011;38258;51.148;14.068;2022-11-11T13:09:31;4.03;;;2.13;;
52318;SDS011;38258;51.148;14.068;2022-11-11T13:12:34;3.50;;;2.10;;
52318;SDS011;38258;51.148;14.068;2022-11-11T13:15:26;4.07;;;2.17;;
52318;SDS011;38258;51.148;14.068;2022-11-11T13:18:13;6.15;;;2.20;;
52318;SDS011;38258;51.148;14.068;2022-11-11T13:21:03;5.65;;;2.47;;
52318;SDS011;38258;51.148;14.068;2022-11-11T13:23:54;3.97;;;2.10;;
52318;SDS011;38258;51.148;14.068;2022-11-11T13:26:42;5.65;;;2.33;;
52318;SDS011;38258;51.148;14.068;2022-11-11T13:32:47;4.70;;;2.50;;
52318;SDS011;38258;51.148;14.068;2022-11-11T13:35:37;4.63;;;2.53;;
52318;SDS011;38258;51.148;14.068;2022-11-11T13:38:29;4.25;;;2.53;;
52318;SDS011;38258;51.148;14.068;2022-11-11T13:41:21;3.92;;;2.40;;
52318;SDS011;38258;51.148;14.068;2022-11-11T13:44:18;4.72;;;2.15;;
52318;SDS011;38258;51.148;14.068;2022-11-11T13:47:10;3.60;;;2.13;;
52318;SDS011;38258;51.148;14.068;2022-11-11T13:50:02;4.07;;;2.17;;
52318;SDS011;38258;51.148;14.068;2022-11-11T13:52:52;4.85;;;2.33;;
52318;SDS011;38258;51.148;14.068;2022-11-11T13:55:42;4.38;;;2.20;;
52318;SDS011;38258;51.148;14.068;2022-11-11T13:58:31;3.88;;;2.22;;
52318;SDS011;38258;51.148;14.068;2022-11-11T14:01:21;4.57;;;2.28;;
52318;SDS011;38258;51.148;14.068;2022-11-11T14:04:07;5.15;;;2.40;;
52318;SDS011;38258;51.148;14.068;2022-11-11T14:06:54;4.32;;;2.50;;
52318;SDS011;38258;51.148;14.068;2022-11-11T14:09:59;4.22;;;2.40;;
52318;SDS011;38258;51.148;14.068;2022-11-11T14:12:46;5.82;;;2.60;;
52318;SDS011;38258;51.148;14.068;2022-11-11T14:15:33;4.80;;;2.50;;
52318;SDS011;38258;51.148;14.068;2022-11-11T14:18:39;5.15;;;2.83;;
52318;SDS011;38258;51.148;14.068;2022-11-11T14:21:42;5.20;;;2.97;;
52318;SDS011;38258;51.148;14.068;2022-11-11T14:24:35;6.47;;;2.72;;
52318;SDS011;38258;51.148;14.068;2022-11-11T14:27:24;4.05;;;2.63;;
52318;SDS011;38258;51.148;14.068;2022-11-11T14:30:26;6.88;;;3.70;;
52318;SDS011;38258;51.148;14.068;2022-11-11T14:33:19;5.50;;;2.90;;
52318;SDS011;38258;51.148;14.068;2022-11-11T14:36:16;6.35;;;3.03;;
52318;SDS011;38258;51.148;14.068;2022-11-11T14:39:11;7.25;;;3.08;;
52318;SDS011;38258;51.148;14.068;2022-11-11T14:42:13;5.55;;;3.08;;
52318;SDS011;38258;51.148;14.068;2022-11-11T14:48:48;6.07;;;2.90;;
52318;SDS011;38258;51.148;14.068;2022-11-11T14:51:47;5.93;;;3.17;;
52318;SDS011;38258;51.148;14.068;2022-11-11T14:54:36;6.30;;;2.88;;
52318;SDS011;38258;51.148;14.068;2022-11-11T14:57:32;8.48;;;3.10;;
52318;SDS011;38258;51.148;14.068;2022-11-11T15:00:20;5.10;;;2.70;;
52318;SDS011;38258;51.148;14.068;2022-11-11T15:03:08;4.57;;;2.85;;
52318;SDS011;38258;51.148;14.068;2022-11-11T15:05:57;6.90;;;3.22;;
52318;SDS011;38258;51.148;14.068;2022-11-11T15:08:49;5.10;;;2.97;;
52318;SDS011;38258;51.148;14.068;2022-11-11T15:11:45;6.25;;;3.30;;
52318;SDS011;38258;51.148;14.068;2022-11-11T15:14:39;6.88;;;3.70;;
52318;SDS011;38258;51.148;14.068;2022-11-11T15:17:34;7.70;;;3.30;;
52318;SDS011;38258;51.148;14.068;2022-11-11T15:20:41;8.80;;;5.18;;
52318;SDS011;38258;51.148;14.068;2022-11-11T15:23:37;8.82;;;5.35;;
52318;SDS011;38258;51.148;14.068;2022-11-11T15:26:33;11.10;;;5.65;;
52318;SDS011;38258;51.148;14.068;2022-11-11T15:32:49;13.50;;;6.40;;
52318;SDS011;38258;51.148;14.068;2022-11-11T15:35:46;13.52;;;6.70;;
52318;SDS011;38258;51.148;14.068;2022-11-11T15:38:39;18.95;;;7.18;;
52318;SDS011;38258;51.148;14.068;2022-11-11T15:41:26;22.25;;;8.27;;
52318;SDS011;38258;51.148;14.068;2022-11-11T15:44:18;18.23;;;7.38;;
52318;SDS011;38258;51.148;14.068;2022-11-11T15:47:10;18.67;;;8.55;;
52318;SDS011;38258;51.148;14.068;2022-11-11T15:49:57;15.52;;;7.40;;
52318;SDS011;38258;51.148;14.068;2022-11-11T15:52:42;18.13;;;7.45;;
52318;SDS011;38258;51.148;14.068;2022-11-11T15:55:29;12.68;;;6.32;;
52318;SDS011;38258;51.148;14.068;2022-11-11T15:58:16;13.48;;;7.03;;
52318;SDS011;38258;51.148;14.068;2022-11-11T16:01:10;14.70;;;7.47;;
52318;SDS011;38258;51.148;14.068;2022-11-11T16:03:57;14.40;;;7.97;;
52318;SDS011;38258;51.148;14.068;2022-11-11T16:06:43;16.23;;;7.35;;
52318;SDS011;38258;51.148;14.068;2022-11-11T16:09:29;13.05;;;6.00;;
52318;SDS011;38258;51.148;14.068;2022-11-11T16:12:17;12.13;;;5.68;;
52318;SDS011;38258;51.148;14.068;2022-11-11T16:15:06;11.40;;;5.53;;
52318;SDS011;38258;51.148;14.068;2022-11-11T16:17:55;12.75;;;6.50;;
52318;SDS011;38258;51.148;14.068;2022-11-11T16:20:46;11.30;;;6.40;;
52318;SDS011;38258;51.148;14.068;2022-11-11T16:23:35;12.35;;;6.47;;
52318;SDS011;38258;51.148;14.068;2022-11-11T16:26:23;13.65;;;6.93;;
52318;SDS011;38258;51.148;14.068;2022-11-11T16:29:12;13.45;;;6.85;;
52318;SDS011;38258;51.148;14.068;2022-11-11T16:31:59;12.70;;;6.78;;
52318;SDS011;38258;51.148;14.068;2022-11-11T16:34:47;14.43;;;7.18;;
52318;SDS011;38258;51.148;14.068;2022-11-11T16:40:40;13.87;;;6.60;;
52318;SDS011;38258;51.148;14.068;2022-11-11T16:43:28;15.43;;;6.90;;
52318;SDS011;38258;51.148;14.068;2022-11-11T16:46:30;13.20;;;7.13;;
52318;SDS011;38258;51.148;14.068;2022-11-11T16:49:26;16.27;;;7.18;;
52318;SDS011;38258;51.148;14.068;2022-11-11T16:52:17;13.95;;;6.93;;
52318;SDS011;38258;51.148;14.068;2022-11-11T16:55:05;12.20;;;5.85;;
52318;SDS011;38258;51.148;14.068;2022-11-11T16:57:53;13.20;;;6.57;;
52318;SDS011;38258;51.148;14.068;2022-11-11T17:00:39;12.85;;;6.65;;
52318;SDS011;38258;51.148;14.068;2022-11-11T17:03:26;14.18;;;6.40;;
52318;SDS011;38258;51.148;14.068;2022-11-11T17:06:11;13.05;;;6.82;;
52318;SDS011;38258;51.148;14.068;2022-11-11T17:08:59;10.98;;;6.20;;
52318;SDS011;38258;51.148;14.068;2022-11-11T17:11:44;10.85;;;6.13;;
52318;SDS011;38258;51.148;14.068;2022-11-11T17:14:31;12.52;;;7.18;;
52318;SDS011;38258;51.148;14.068;2022-11-11T17:17:18;21.58;;;10.05;;
52318;SDS011;38258;51.148;14.068;2022-11-11T17:20:05;16.02;;;8.15;;